createdAt,value
2023-07-18T00:01:09.690Z,69.64
2023-07-18T00:02:42.198Z,70.82
2023-07-18T00:04:14.036Z,71.17
2023-07-18T00:05:46.128Z,70.76
2023-07-18T00:07:17.752Z,70.61
2023-07-18T00:08:49.356Z,70.04
2023-07-18T00:10:21.189Z,70.17
2023-07-18T00:11:52.839Z,70.98
2023-07-18T00:13:24.608Z,70.15
2023-07-18T00:14:56.279Z,69.95
2023-07-18T00:16:29.356Z,69.31
2023-07-18T00:18:03.328Z,69.37
2023-07-18T00:19:35.381Z,69.31
2023-07-18T00:21:07.081Z,69.52
2023-07-18T00:22:38.885Z,69.63
2023-07-18T00:24:10.562Z,70.09
2023-07-18T00:25:42.462Z,70.46
2023-07-18T00:27:17.662Z,70.42
2023-07-18T00:28:54.442Z,70.76
2023-07-18T00:30:27.415Z,70.42
2023-07-18T00:32:00.516Z,70.58
2023-07-18T00:33:32.293Z,70.74
2023-07-18T00:35:05.307Z,70.48
2023-07-18T00:36:37.566Z,70.55
2023-07-18T00:38:09.273Z,70.08
2023-07-18T00:39:40.879Z,70.34
2023-07-18T00:41:12.761Z,69.78
2023-07-18T00:42:46.524Z,69.91
2023-07-18T00:44:18.267Z,70.69
2023-07-18T00:45:49.885Z,70.56
2023-07-18T00:47:26.108Z,70.00
2023-07-18T00:48:58.381Z,70.14
2023-07-18T00:50:30.242Z,70.44
2023-07-18T00:52:02.294Z,70.84
2023-07-18T00:53:34.354Z,70.39
2023-07-18T00:55:06.669Z,70.65
2023-07-18T00:56:38.283Z,70.62
2023-07-18T00:58:09.964Z,69.75
2023-07-18T00:59:41.613Z,69.80
2023-07-18T01:01:13.249Z,69.85
2023-07-18T01:02:46.513Z,69.77
2023-07-18T01:04:19.565Z,70.19
2023-07-18T01:05:51.180Z,69.87
2023-07-18T01:07:22.881Z,69.90
2023-07-18T01:08:54.559Z,69.88
2023-07-18T01:10:27.083Z,69.90
2023-07-18T01:11:58.792Z,69.66
2023-07-18T01:13:30.538Z,70.16
2023-07-18T01:15:02.564Z,70.04
2023-07-18T01:16:34.181Z,70.27
2023-07-18T01:18:10.244Z,69.85
2023-07-18T01:19:42.996Z,70.06
2023-07-18T01:21:19.264Z,69.66
2023-07-18T01:22:52.423Z,69.19
2023-07-18T01:24:24.136Z,69.92
2023-07-18T01:25:56.901Z,69.93
2023-07-18T01:27:28.516Z,69.91
2023-07-18T01:29:00.215Z,69.68
2023-07-18T01:30:32.034Z,69.79
2023-07-18T01:32:04.193Z,69.38
2023-07-18T01:33:35.810Z,70.00
2023-07-18T01:35:09.298Z,69.75
2023-07-18T01:36:42.394Z,69.25
2023-07-18T01:38:14.085Z,69.38
2023-07-18T01:39:46.070Z,69.63
2023-07-18T01:41:17.845Z,69.03
2023-07-18T01:42:52.662Z,68.53
2023-07-18T01:44:24.457Z,68.88
2023-07-18T01:45:58.598Z,68.29
2023-07-18T01:47:31.228Z,69.47
2023-07-18T01:49:02.909Z,68.49
2023-07-18T01:50:34.644Z,68.48
2023-07-18T01:52:07.836Z,68.30
2023-07-18T01:53:39.447Z,68.40
2023-07-18T01:55:11.244Z,68.80
2023-07-18T01:56:42.931Z,68.21
2023-07-18T01:58:14.549Z,67.09
2023-07-18T01:59:46.243Z,67.84
2023-07-18T02:01:18.125Z,68.12
2023-07-18T02:02:50.720Z,67.16
2023-07-18T02:04:22.511Z,66.88
2023-07-18T02:05:54.122Z,67.00
2023-07-18T02:07:28.206Z,67.26
2023-07-18T02:09:00.806Z,68.03
2023-07-18T02:10:32.439Z,67.36
2023-07-18T02:12:04.548Z,66.69
2023-07-18T02:13:36.546Z,66.68
2023-07-18T02:15:09.565Z,66.63
2023-07-18T02:16:41.216Z,66.98
2023-07-18T02:18:12.876Z,67.55
2023-07-18T02:19:44.609Z,66.45
2023-07-18T02:21:16.412Z,66.75
2023-07-18T02:22:49.774Z,66.92
2023-07-18T02:24:21.449Z,65.85
2023-07-18T02:25:53.075Z,66.34
2023-07-18T02:27:24.866Z,66.69
2023-07-18T02:28:56.961Z,66.42
2023-07-18T02:30:28.590Z,64.64
2023-07-18T02:32:00.892Z,65.52
2023-07-18T02:33:32.644Z,62.70
2023-07-18T02:35:04.791Z,64.01
2023-07-18T02:36:36.405Z,64.49
2023-07-18T02:38:09.676Z,63.72
2023-07-18T02:39:45.744Z,64.81
2023-07-18T02:41:18.842Z,64.51
2023-07-18T02:42:50.683Z,63.95
2023-07-18T02:44:22.301Z,63.70
2023-07-18T02:45:53.954Z,63.05
2023-07-18T02:47:25.604Z,62.67
2023-07-18T02:48:57.739Z,63.69
2023-07-18T02:50:29.346Z,63.50
2023-07-18T02:52:01.077Z,62.29
2023-07-18T02:53:34.253Z,63.21
2023-07-18T02:55:07.175Z,63.85
2023-07-18T02:56:38.884Z,64.21
2023-07-18T02:58:10.694Z,62.39
2023-07-18T02:59:42.366Z,62.75
2023-07-18T03:01:13.972Z,63.37
2023-07-18T03:02:46.681Z,62.89
2023-07-18T03:04:18.431Z,63.71
2023-07-18T03:05:52.220Z,63.93
2023-07-18T03:07:23.830Z,62.96
2023-07-18T03:08:56.977Z,63.88
2023-07-18T03:10:29.007Z,61.80
2023-07-18T03:12:00.651Z,62.57
2023-07-18T03:13:32.882Z,61.98
2023-07-18T03:15:05.860Z,63.02
2023-07-18T03:16:37.533Z,60.83
2023-07-18T03:18:09.255Z,61.51
2023-07-18T03:19:41.267Z,62.29
2023-07-18T03:21:12.988Z,62.30
2023-07-18T03:22:45.336Z,60.29
2023-07-18T03:24:19.572Z,62.60
2023-07-18T03:25:51.304Z,61.10
2023-07-18T03:27:22.886Z,60.92
2023-07-18T03:28:56.247Z,61.10
2023-07-18T03:30:27.894Z,61.35
2023-07-18T03:32:00.699Z,62.23
2023-07-18T03:33:32.809Z,61.87
2023-07-18T03:35:05.164Z,61.65
2023-07-18T03:36:38.380Z,61.86
2023-07-18T03:38:10.234Z,60.31
2023-07-18T03:39:43.208Z,60.95
2023-07-18T03:41:15.216Z,61.11
2023-07-18T03:42:47.042Z,60.81
2023-07-18T03:44:18.902Z,59.85
2023-07-18T03:45:51.546Z,61.73
2023-07-18T03:47:23.200Z,61.87
2023-07-18T03:48:54.970Z,60.57
2023-07-18T03:50:26.694Z,62.13
2023-07-18T03:51:58.372Z,60.72
2023-07-18T03:53:30.038Z,61.83
2023-07-18T03:55:04.426Z,61.58
2023-07-18T03:56:36.133Z,61.00
2023-07-18T03:58:07.730Z,60.17
2023-07-18T03:59:39.638Z,62.15
2023-07-18T04:01:11.602Z,61.20
2023-07-18T04:02:46.501Z,58.85
2023-07-18T04:04:18.750Z,61.31
2023-07-18T04:05:52.446Z,59.41
2023-07-18T04:07:24.969Z,61.34
2023-07-18T04:08:56.747Z,60.89
2023-07-18T04:10:29.749Z,59.37
2023-07-18T04:12:01.406Z,61.04
2023-07-18T04:13:33.602Z,60.70
2023-07-18T04:15:06.669Z,61.72
2023-07-18T04:16:39.072Z,60.45
2023-07-18T04:18:10.836Z,61.83
2023-07-18T04:19:42.475Z,61.00
2023-07-18T04:21:14.116Z,61.40
2023-07-18T04:22:45.788Z,59.30
2023-07-18T04:24:17.517Z,59.45
2023-07-18T04:25:58.338Z,60.37
2023-07-18T04:27:30.041Z,62.25
2023-07-18T04:29:01.673Z,60.91
2023-07-18T04:30:33.397Z,61.58
2023-07-18T04:32:06.077Z,59.97
2023-07-18T04:33:38.893Z,60.28
2023-07-18T04:35:10.587Z,59.45
2023-07-18T04:36:42.745Z,61.68
2023-07-18T04:38:14.992Z,58.37
2023-07-18T04:39:46.654Z,60.20
2023-07-18T04:41:20.044Z,59.82
2023-07-18T04:42:52.034Z,58.47
2023-07-18T04:44:24.024Z,58.99
2023-07-18T04:45:55.941Z,59.54
2023-07-18T04:47:27.840Z,61.38
2023-07-18T04:48:59.918Z,60.55
2023-07-18T04:50:31.665Z,58.90
2023-07-18T04:52:03.996Z,58.34
2023-07-18T04:53:35.725Z,60.69
2023-07-18T04:55:07.968Z,59.42
2023-07-18T04:56:40.938Z,60.17
2023-07-18T04:58:12.592Z,58.65
2023-07-18T04:59:44.320Z,59.83
2023-07-18T05:01:16.059Z,57.64
2023-07-18T05:02:47.965Z,58.35
2023-07-18T05:04:20.009Z,57.22
2023-07-18T05:05:51.683Z,56.96
2023-07-18T05:07:24.147Z,57.56
2023-07-18T05:08:55.788Z,57.50
2023-07-18T05:10:27.494Z,58.03
2023-07-18T05:12:00.807Z,58.20
2023-07-18T05:13:32.459Z,58.69
2023-07-18T05:15:04.673Z,58.91
2023-07-18T05:16:36.700Z,59.21
2023-07-18T05:18:08.412Z,59.51
2023-07-18T05:19:40.047Z,58.34
2023-07-18T05:21:11.669Z,59.46
2023-07-18T05:22:44.267Z,58.39
2023-07-18T05:24:16.209Z,59.50
2023-07-18T05:25:47.823Z,58.79
2023-07-18T05:27:22.659Z,58.66
2023-07-18T05:28:54.766Z,59.81
2023-07-18T05:30:26.588Z,59.81
2023-07-18T05:31:58.488Z,58.25
2023-07-18T05:33:30.186Z,60.11
2023-07-18T05:35:01.847Z,59.23
2023-07-18T05:36:33.491Z,60.37
2023-07-18T05:38:05.092Z,60.32
2023-07-18T05:39:36.722Z,61.87
2023-07-18T05:41:08.351Z,60.33
2023-07-18T05:42:41.915Z,60.52
2023-07-18T05:44:13.579Z,61.23
2023-07-18T05:45:45.322Z,60.08
2023-07-18T05:47:16.928Z,59.59
2023-07-18T05:48:48.748Z,61.14
2023-07-18T05:50:20.435Z,59.42
2023-07-18T05:51:53.131Z,59.91
2023-07-18T05:53:25.791Z,60.12
2023-07-18T05:54:57.642Z,61.09
2023-07-18T05:56:29.275Z,60.66
2023-07-18T05:58:02.396Z,60.72
2023-07-18T05:59:35.727Z,59.83
2023-07-18T06:01:10.309Z,59.37
2023-07-18T06:02:42.973Z,57.78
2023-07-18T06:04:17.327Z,58.55
2023-07-18T06:05:54.139Z,58.58
2023-07-18T06:07:25.857Z,59.25
2023-07-18T06:08:57.522Z,58.90
2023-07-18T06:10:29.807Z,58.46
2023-07-18T06:12:01.522Z,56.89
2023-07-18T06:13:34.714Z,56.95
2023-07-18T06:15:07.758Z,56.81
2023-07-18T06:16:39.988Z,56.68
2023-07-18T06:18:11.696Z,57.87
2023-07-18T06:19:43.361Z,58.09
2023-07-18T06:21:17.176Z,58.07
2023-07-18T06:22:49.080Z,58.01
2023-07-18T06:24:21.103Z,58.23
2023-07-18T06:25:54.386Z,59.53
2023-07-18T06:27:27.862Z,59.70
2023-07-18T06:29:00.887Z,60.83
2023-07-18T06:30:32.953Z,60.21
2023-07-18T06:32:06.928Z,58.96
2023-07-18T06:33:38.764Z,59.14
2023-07-18T06:35:22.844Z,59.50
2023-07-18T06:36:55.625Z,60.29
2023-07-18T06:38:27.370Z,61.00
2023-07-18T06:39:59.000Z,60.08
2023-07-18T06:41:30.745Z,60.81
2023-07-18T06:43:02.617Z,61.88
2023-07-18T06:44:35.629Z,59.98
2023-07-18T06:46:08.592Z,59.41
2023-07-18T06:47:40.432Z,60.18
2023-07-18T06:49:12.872Z,59.98
2023-07-18T06:50:45.608Z,61.24
2023-07-18T06:52:17.258Z,60.47
2023-07-18T06:53:48.921Z,60.40
2023-07-18T06:55:20.548Z,61.50
2023-07-18T06:56:52.432Z,59.92
2023-07-18T06:58:26.250Z,60.88
2023-07-18T06:59:59.234Z,61.24
2023-07-18T07:01:31.342Z,60.87
2023-07-18T07:03:03.133Z,61.80
2023-07-18T07:04:35.879Z,61.63
2023-07-18T07:06:10.837Z,61.96
2023-07-18T07:07:42.618Z,61.33
2023-07-18T07:09:14.845Z,61.71
2023-07-18T07:10:46.665Z,61.58
2023-07-18T07:12:30.693Z,63.00
2023-07-18T07:14:07.839Z,61.66
2023-07-18T07:15:41.386Z,59.81
2023-07-18T07:17:13.105Z,61.70
2023-07-18T07:18:44.744Z,61.05
2023-07-18T07:20:16.614Z,60.30
2023-07-18T07:21:48.228Z,60.88
2023-07-18T07:23:19.889Z,62.54
2023-07-18T07:24:51.581Z,65.56
2023-07-18T07:26:23.191Z,63.20
2023-07-18T07:27:54.896Z,63.04
2023-07-18T07:29:27.510Z,62.05
2023-07-18T07:31:02.126Z,62.33
2023-07-18T07:32:33.873Z,62.11
2023-07-18T07:34:05.554Z,61.62
2023-07-18T07:35:37.179Z,61.65
2023-07-18T07:37:09.857Z,60.62
2023-07-18T07:38:41.728Z,61.87
2023-07-18T07:40:13.498Z,60.55
2023-07-18T07:41:45.978Z,59.67
2023-07-18T07:43:17.686Z,59.69
2023-07-18T07:44:49.737Z,59.82
2023-07-18T07:46:22.856Z,59.69
2023-07-18T07:47:54.763Z,60.19
2023-07-18T07:49:26.402Z,60.06
2023-07-18T07:50:58.324Z,59.13
2023-07-18T07:52:29.914Z,59.48
2023-07-18T07:54:01.564Z,59.47
2023-07-18T07:55:33.201Z,58.57
2023-07-18T07:57:06.575Z,58.77
2023-07-18T07:58:38.216Z,58.71
2023-07-18T08:00:11.192Z,58.08
2023-07-18T08:01:44.351Z,58.51
2023-07-18T08:03:15.994Z,59.54
2023-07-18T08:04:48.087Z,58.60
2023-07-18T08:06:20.048Z,59.31
2023-07-18T08:07:51.687Z,59.11
2023-07-18T08:09:23.456Z,59.09
2023-07-18T08:10:55.162Z,58.69
2023-07-18T08:12:27.318Z,58.16
2023-07-18T08:13:58.964Z,57.80
2023-07-18T08:15:30.619Z,58.16
2023-07-18T08:17:04.576Z,58.50
2023-07-18T08:18:37.488Z,58.04
2023-07-18T08:20:10.046Z,57.62
2023-07-18T08:21:41.641Z,57.43
2023-07-18T08:23:13.722Z,58.28
2023-07-18T08:24:45.467Z,58.43
2023-07-18T08:26:17.084Z,57.40
2023-07-18T08:27:48.711Z,58.97
2023-07-18T08:29:20.521Z,58.26
2023-07-18T08:30:52.242Z,57.90
2023-07-18T08:32:28.889Z,57.02
2023-07-18T08:34:01.700Z,57.90
2023-07-18T08:35:33.395Z,58.32
2023-07-18T08:37:06.760Z,58.00
2023-07-18T08:38:38.546Z,58.21
2023-07-18T08:40:11.202Z,58.96
2023-07-18T08:41:44.954Z,57.76
2023-07-18T08:43:19.331Z,57.80
2023-07-18T08:44:51.006Z,57.88
2023-07-18T08:46:22.696Z,58.04
2023-07-18T08:47:57.702Z,57.57
2023-07-18T08:49:30.888Z,57.74
2023-07-18T08:51:02.655Z,58.00
2023-07-18T08:52:34.355Z,57.15
2023-07-18T08:54:06.036Z,56.96
2023-07-18T08:55:38.031Z,57.43
2023-07-18T08:57:09.964Z,58.00
2023-07-18T08:58:41.691Z,56.23
2023-07-18T09:00:15.841Z,56.55
2023-07-18T09:01:48.064Z,56.72
2023-07-18T09:03:21.177Z,56.11
2023-07-18T09:04:52.822Z,56.70
2023-07-18T09:06:25.568Z,56.26
2023-07-18T09:07:57.642Z,55.54
2023-07-18T09:09:29.267Z,55.11
2023-07-18T09:11:02.058Z,55.45
2023-07-18T09:12:35.903Z,55.08
2023-07-18T09:14:07.576Z,55.65
2023-07-18T09:15:39.209Z,55.20
2023-07-18T09:17:11.063Z,55.22
2023-07-18T09:18:47.519Z,55.37
2023-07-18T09:20:20.362Z,55.17
2023-07-18T09:21:58.656Z,55.25
2023-07-18T09:23:30.272Z,55.34
2023-07-18T09:25:01.956Z,55.81
2023-07-18T09:26:33.637Z,55.90
2023-07-18T09:28:05.306Z,55.83
2023-07-18T09:29:37.080Z,55.91
2023-07-18T09:31:19.196Z,55.98
2023-07-18T09:32:54.344Z,55.73
2023-07-18T09:34:28.428Z,55.27
2023-07-18T09:36:00.271Z,55.36
2023-07-18T09:37:31.959Z,54.88
2023-07-18T09:39:03.687Z,55.88
2023-07-18T09:40:35.617Z,54.92
2023-07-18T09:42:10.746Z,54.40
2023-07-18T09:43:49.007Z,54.31
2023-07-18T09:45:20.986Z,55.08
2023-07-18T09:46:52.833Z,53.73
2023-07-18T09:48:25.108Z,54.82
2023-07-18T09:49:58.151Z,56.38
2023-07-18T09:51:31.653Z,55.65
2023-07-18T09:53:03.289Z,54.88
2023-07-18T09:54:34.983Z,56.04
2023-07-18T09:56:07.582Z,54.24
2023-07-18T09:57:41.313Z,55.03
2023-07-18T09:59:13.143Z,55.32
2023-07-18T10:00:46.798Z,54.69
2023-07-18T10:02:19.914Z,54.61
2023-07-18T10:03:55.476Z,55.43
2023-07-18T10:05:28.738Z,54.91
2023-07-18T10:07:00.437Z,55.98
2023-07-18T10:08:32.289Z,56.93
2023-07-18T10:10:05.345Z,56.95
2023-07-18T10:12:07.241Z,56.06
2023-07-18T10:13:43.212Z,54.83
2023-07-18T10:15:15.049Z,55.39
2023-07-18T10:16:49.350Z,55.26
2023-07-18T10:18:23.546Z,55.92
2023-07-18T10:19:55.796Z,56.60
2023-07-18T10:21:30.046Z,56.89
2023-07-18T10:23:01.792Z,58.21
2023-07-18T10:24:33.873Z,57.45
2023-07-18T10:26:08.127Z,56.73
2023-07-18T10:27:43.527Z,56.10
2023-07-18T10:29:15.241Z,56.25
2023-07-18T10:30:47.566Z,55.39
2023-07-18T10:32:20.845Z,53.50
2023-07-18T10:34:06.035Z,52.67
2023-07-18T10:35:39.494Z,52.62
2023-07-18T10:37:12.597Z,52.29
2023-07-18T10:38:44.242Z,50.91
2023-07-18T10:40:31.454Z,50.56
2023-07-18T10:42:06.287Z,52.57
2023-07-18T10:43:47.253Z,53.14
2023-07-18T10:45:19.006Z,52.40
2023-07-18T10:46:50.677Z,54.50
2023-07-18T10:48:22.396Z,54.38
2023-07-18T10:49:54.275Z,53.15
2023-07-18T10:51:25.951Z,54.94
2023-07-18T10:52:59.099Z,51.93
2023-07-18T10:54:30.730Z,51.06
2023-07-18T10:56:02.799Z,53.88
2023-07-18T10:57:36.075Z,52.33
2023-07-18T10:59:07.798Z,54.50
2023-07-18T11:00:40.552Z,55.95
2023-07-18T11:02:12.310Z,57.39
2023-07-18T11:03:46.350Z,57.21
2023-07-18T11:05:18.129Z,57.31
2023-07-18T11:06:50.386Z,57.49
2023-07-18T11:08:27.059Z,57.22
2023-07-18T11:09:58.764Z,57.80
2023-07-18T11:11:30.442Z,57.03
2023-07-18T11:13:02.060Z,56.74
2023-07-18T11:14:40.037Z,57.03
2023-07-18T11:16:12.670Z,57.81
2023-07-18T11:17:44.789Z,59.41
2023-07-18T11:19:17.007Z,56.99
2023-07-18T11:20:48.838Z,57.73
2023-07-18T11:22:20.434Z,57.12
2023-07-18T11:23:55.747Z,57.39
2023-07-18T11:25:27.385Z,56.00
2023-07-18T11:27:15.729Z,58.56
2023-07-18T11:28:52.569Z,61.32
2023-07-18T11:30:24.316Z,63.43
2023-07-18T11:32:02.180Z,64.57
2023-07-18T11:33:34.129Z,64.70
2023-07-18T11:35:07.707Z,65.75
2023-07-18T11:36:40.868Z,66.01
2023-07-18T11:38:13.027Z,64.58
2023-07-18T11:39:49.014Z,69.51
2023-07-18T11:41:33.723Z,68.61
2023-07-18T11:43:05.675Z,70.30
2023-07-18T11:44:42.885Z,70.67
2023-07-18T11:46:14.869Z,67.22
2023-07-18T11:47:48.085Z,66.03
2023-07-18T11:49:33.026Z,66.34
2023-07-18T11:51:05.252Z,64.97
2023-07-18T11:52:36.910Z,66.23
2023-07-18T11:54:08.926Z,66.06
2023-07-18T11:55:42.046Z,67.32
2023-07-18T11:57:13.792Z,67.06
2023-07-18T11:58:45.572Z,66.87
2023-07-18T12:00:17.951Z,70.36
2023-07-18T12:01:49.644Z,70.61
2023-07-18T12:03:21.416Z,70.46
2023-07-18T12:04:53.411Z,71.26
2023-07-18T12:06:25.090Z,72.32
2023-07-18T12:07:56.753Z,71.59
2023-07-18T12:09:28.352Z,72.50
2023-07-18T12:11:09.447Z,71.16
2023-07-18T12:12:41.650Z,74.61
2023-07-18T12:14:13.352Z,76.76
2023-07-18T12:15:45.019Z,76.10
2023-07-18T12:17:16.777Z,74.08
2023-07-18T12:18:48.391Z,72.48
2023-07-18T12:20:20.381Z,73.38
2023-07-18T12:21:52.241Z,71.47
2023-07-18T12:23:24.961Z,70.81
2023-07-18T12:24:56.753Z,72.75
2023-07-18T12:26:29.870Z,73.06
2023-07-18T12:28:01.739Z,71.00
2023-07-18T12:29:33.337Z,71.98
2023-07-18T12:31:08.019Z,72.73
2023-07-18T12:32:39.997Z,70.44
2023-07-18T12:34:11.905Z,71.34
2023-07-18T12:35:43.768Z,71.03
2023-07-18T12:37:15.509Z,70.84
2023-07-18T12:38:47.907Z,70.76
2023-07-18T12:40:19.609Z,72.09
2023-07-18T12:41:52.672Z,70.58
2023-07-18T12:43:24.299Z,69.21
2023-07-18T12:44:55.984Z,69.01
2023-07-18T12:46:28.292Z,66.50
2023-07-18T12:48:00.232Z,66.23
2023-07-18T12:51:07.007Z,66.45
2023-07-18T12:52:39.279Z,67.54
2023-07-18T12:54:11.236Z,66.79
2023-07-18T12:55:42.862Z,68.92
2023-07-18T12:57:15.802Z,71.09
2023-07-18T12:58:47.440Z,71.30
2023-07-18T13:00:20.454Z,70.10
2023-07-18T13:01:52.143Z,70.67
2023-07-18T13:03:23.862Z,70.43
2023-07-18T13:04:55.588Z,71.10
2023-07-18T13:06:27.227Z,69.98
2023-07-18T13:07:58.855Z,68.93
2023-07-18T13:09:31.742Z,67.42
2023-07-18T13:11:03.441Z,65.60
2023-07-18T13:12:36.493Z,64.90
2023-07-18T13:14:08.154Z,66.06
2023-07-18T13:15:39.801Z,66.63
2023-07-18T13:17:11.461Z,66.43
2023-07-18T13:18:43.074Z,68.03
2023-07-18T13:20:14.967Z,67.48
2023-07-18T13:21:46.702Z,67.84
2023-07-18T13:23:18.581Z,67.51
2023-07-18T13:24:50.405Z,66.70
2023-07-18T13:26:22.535Z,66.69
2023-07-18T13:27:55.998Z,67.40
2023-07-18T13:29:27.762Z,67.07
2023-07-18T13:30:59.434Z,68.51
2023-07-18T13:32:31.631Z,69.22
2023-07-18T13:34:03.639Z,69.71
2023-07-18T13:35:35.662Z,70.58
2023-07-18T13:37:07.334Z,70.08
2023-07-18T13:38:39.076Z,70.67
2023-07-18T13:40:11.363Z,71.57
2023-07-18T13:41:43.058Z,72.33
2023-07-18T13:43:15.998Z,71.93
2023-07-18T13:44:47.619Z,72.14
2023-07-18T13:46:19.690Z,72.75
2023-07-18T13:47:52.028Z,72.02
2023-07-18T13:49:24.132Z,71.73
2023-07-18T13:50:56.010Z,71.45
2023-07-18T13:52:28.250Z,69.35
2023-07-18T13:53:59.970Z,68.49
2023-07-18T13:55:31.772Z,68.16
2023-07-18T13:57:04.379Z,68.26
2023-07-18T13:58:38.248Z,68.76
2023-07-18T14:00:11.352Z,67.72
2023-07-18T14:01:43.033Z,66.47
2023-07-18T14:03:32.137Z,65.68
2023-07-18T14:05:06.443Z,66.65
2023-07-18T14:06:38.502Z,67.10
2023-07-18T14:08:10.181Z,66.81
2023-07-18T14:09:41.839Z,68.14
2023-07-18T14:11:13.482Z,67.84
2023-07-18T14:12:46.399Z,67.31
2023-07-18T14:14:19.397Z,66.86
2023-07-18T14:15:51.586Z,67.34
2023-07-18T14:17:23.373Z,67.43
2023-07-18T14:18:57.480Z,67.84
2023-07-18T14:20:29.201Z,67.54
2023-07-18T14:22:00.825Z,67.48
2023-07-18T14:23:32.570Z,66.97
2023-07-18T14:25:04.940Z,66.12
2023-07-18T14:26:36.928Z,65.63
2023-07-18T14:28:08.792Z,63.82
2023-07-18T14:29:42.293Z,62.69
2023-07-18T14:31:14.460Z,64.08
2023-07-18T14:32:46.185Z,62.21
2023-07-18T14:34:18.011Z,63.87
2023-07-18T14:35:49.739Z,61.27
2023-07-18T14:37:23.896Z,60.43
2023-07-18T14:38:55.804Z,59.61
2023-07-18T14:40:27.456Z,61.02
2023-07-18T14:41:59.487Z,61.50
2023-07-18T14:43:32.020Z,59.77
2023-07-18T14:45:06.248Z,59.10
2023-07-18T14:46:38.113Z,59.94
2023-07-18T14:48:09.986Z,59.94
2023-07-18T14:49:41.800Z,60.33
2023-07-18T14:51:13.469Z,59.04
2023-07-18T14:52:45.165Z,59.74
2023-07-18T14:54:17.918Z,61.39
2023-07-18T14:55:49.608Z,58.86
2023-07-18T14:57:21.376Z,61.60
2023-07-18T14:58:53.031Z,58.00
2023-07-18T15:00:26.253Z,55.95
2023-07-18T15:01:58.057Z,55.24
2023-07-18T15:03:30.020Z,54.50
2023-07-18T15:05:02.119Z,56.43
2023-07-18T15:06:33.779Z,57.90
2023-07-18T15:08:05.427Z,59.10
2023-07-18T15:09:37.233Z,57.58
2023-07-18T15:11:10.434Z,59.35
2023-07-18T15:12:44.343Z,59.21
2023-07-18T15:14:16.269Z,58.85
2023-07-18T15:15:49.258Z,59.02
2023-07-18T15:17:20.936Z,55.89
2023-07-18T15:18:52.646Z,55.99
2023-07-18T15:20:24.322Z,57.29
2023-07-18T15:21:56.367Z,57.63
2023-07-18T15:23:28.163Z,57.45
2023-07-18T15:25:00.374Z,55.33
2023-07-18T15:26:32.049Z,54.83
2023-07-18T15:28:03.933Z,56.26
2023-07-18T15:29:35.846Z,56.82
2023-07-18T15:31:08.958Z,55.40
2023-07-18T15:32:42.087Z,53.06
2023-07-18T15:34:14.993Z,53.12
2023-07-18T15:35:46.685Z,52.32
2023-07-18T15:37:18.389Z,54.18
2023-07-18T15:38:50.182Z,53.72
2023-07-18T15:40:22.179Z,53.22
2023-07-18T15:41:53.865Z,52.05
2023-07-18T15:43:25.608Z,52.54
2023-07-18T15:44:57.300Z,54.42
2023-07-18T15:46:30.562Z,55.69
2023-07-18T15:48:02.362Z,55.88
2023-07-18T15:49:36.022Z,56.25
2023-07-18T15:51:07.641Z,54.81
2023-07-18T15:52:39.250Z,54.26
2023-07-18T15:54:13.122Z,55.63
2023-07-18T15:55:44.920Z,55.10
2023-07-18T15:57:16.534Z,55.19
2023-07-18T15:58:48.292Z,56.10
2023-07-18T16:00:20.156Z,55.62
2023-07-18T16:01:55.001Z,55.52
2023-07-18T16:03:26.912Z,54.07
2023-07-18T16:04:59.005Z,54.81
2023-07-18T16:06:30.838Z,55.68
2023-07-18T16:08:02.637Z,55.62
2023-07-18T16:09:47.377Z,56.99
2023-07-18T16:11:19.485Z,57.34
2023-07-18T16:12:52.339Z,58.31
2023-07-18T16:14:24.047Z,56.91
2023-07-18T16:15:57.922Z,57.43
2023-07-18T16:17:31.123Z,56.57
2023-07-18T16:19:04.761Z,58.06
2023-07-18T16:20:36.498Z,58.09
2023-07-18T16:22:08.348Z,58.16
2023-07-18T16:23:40.377Z,58.89
2023-07-18T16:25:12.083Z,57.96
2023-07-18T16:26:43.711Z,55.97
2023-07-18T16:28:15.338Z,54.05
2023-07-18T16:29:47.080Z,54.30
2023-07-18T16:31:19.504Z,54.31
2023-07-18T16:32:56.288Z,54.33
2023-07-18T16:34:28.182Z,54.50
2023-07-18T16:35:59.859Z,55.67
2023-07-18T16:37:31.505Z,56.17
2023-07-18T16:39:03.325Z,54.52
2023-07-18T16:40:36.689Z,53.54
2023-07-18T16:42:22.846Z,52.35
2023-07-18T16:43:55.394Z,53.83
2023-07-18T16:45:27.086Z,53.07
2023-07-18T16:46:58.749Z,54.19
2023-07-18T16:48:31.722Z,54.04
2023-07-18T16:50:03.853Z,55.02
2023-07-18T16:51:35.657Z,54.52
2023-07-18T16:53:07.962Z,54.77
2023-07-18T16:54:39.711Z,56.81
2023-07-18T16:56:12.674Z,56.37
2023-07-18T16:57:44.401Z,55.12
2023-07-18T16:59:16.192Z,55.18
2023-07-18T17:00:48.059Z,56.11
2023-07-18T17:02:19.762Z,57.12
2023-07-18T17:03:58.665Z,56.78
2023-07-18T17:05:30.387Z,55.75
2023-07-18T17:07:02.044Z,56.62
2023-07-18T17:08:33.724Z,56.86
2023-07-18T17:10:06.300Z,57.28
2023-07-18T17:11:38.022Z,56.75
2023-07-18T17:13:09.764Z,56.96
2023-07-18T17:14:41.536Z,56.92
2023-07-18T17:16:13.233Z,56.98
2023-07-18T17:17:44.898Z,56.74
2023-07-18T17:19:17.900Z,56.33
2023-07-18T17:20:49.568Z,57.67
2023-07-18T17:22:21.347Z,57.71
2023-07-18T17:23:53.164Z,57.22
2023-07-18T17:25:25.401Z,57.37
2023-07-18T17:26:57.072Z,58.29
2023-07-18T17:28:29.800Z,57.76
2023-07-18T17:30:03.047Z,59.08
2023-07-18T17:31:34.673Z,58.39
2023-07-18T17:33:06.339Z,58.89
2023-07-18T17:34:39.305Z,56.92
2023-07-18T17:36:11.579Z,57.45
2023-07-18T17:37:43.205Z,57.24
2023-07-18T17:39:15.152Z,58.56
2023-07-18T17:40:47.910Z,57.54
2023-07-18T17:42:19.567Z,56.75
2023-07-18T17:43:51.440Z,56.92
2023-07-18T17:45:23.218Z,58.68
2023-07-18T17:46:54.960Z,59.00
2023-07-18T17:48:26.697Z,58.54
2023-07-18T17:49:59.837Z,58.44
2023-07-18T17:51:31.489Z,59.65
2023-07-18T17:53:03.766Z,59.96
2023-07-18T17:54:35.760Z,61.50
2023-07-18T17:56:07.645Z,59.90
2023-07-18T17:57:40.878Z,59.57
2023-07-18T17:59:12.697Z,59.70
2023-07-18T18:00:45.402Z,60.13
2023-07-18T18:02:17.086Z,60.45
2023-07-18T18:03:49.330Z,59.57
2023-07-18T18:05:36.454Z,59.77
2023-07-18T18:07:09.121Z,60.77
2023-07-18T18:08:42.179Z,60.26
2023-07-18T18:10:14.166Z,59.92
2023-07-18T18:11:46.442Z,59.20
2023-07-18T18:13:18.201Z,59.92
2023-07-18T18:14:49.998Z,58.95
2023-07-18T18:16:21.982Z,60.47
2023-07-18T18:17:54.918Z,60.66
2023-07-18T18:19:26.699Z,62.18
2023-07-18T18:21:00.097Z,61.82
2023-07-18T18:22:31.966Z,60.29
2023-07-18T18:24:04.045Z,60.26
2023-07-18T18:25:35.801Z,60.75
2023-07-18T18:27:07.596Z,62.14
2023-07-18T18:28:39.392Z,62.24
2023-07-18T18:30:12.048Z,62.17
2023-07-18T18:31:43.834Z,62.05
2023-07-18T18:33:15.491Z,62.79
2023-07-18T18:35:00.943Z,62.80
2023-07-18T18:36:39.279Z,63.66
2023-07-18T18:38:11.351Z,62.97
2023-07-18T18:39:43.121Z,62.93
2023-07-18T18:41:15.243Z,62.71
2023-07-18T18:42:47.313Z,64.28
2023-07-18T18:44:18.942Z,65.67
2023-07-18T18:45:51.220Z,65.35
2023-07-18T18:47:22.937Z,65.22
2023-07-18T18:48:55.017Z,66.00
2023-07-18T18:50:26.882Z,67.08
2023-07-18T18:52:00.078Z,67.73
2023-07-18T18:53:31.745Z,66.50
2023-07-18T18:55:18.201Z,65.95
2023-07-18T18:56:53.275Z,66.21
2023-07-18T18:58:24.930Z,65.77
2023-07-18T18:59:56.702Z,66.05
2023-07-18T19:01:28.597Z,66.66
2023-07-18T19:03:00.397Z,66.46
2023-07-18T19:04:32.138Z,66.59
2023-07-18T19:06:03.962Z,66.12
2023-07-18T19:07:37.284Z,66.71
2023-07-18T19:09:08.980Z,66.06
2023-07-18T19:10:44.084Z,67.19
2023-07-18T19:12:20.935Z,68.49
2023-07-18T19:13:52.570Z,68.62
2023-07-18T19:15:24.329Z,68.18
2023-07-18T19:16:56.149Z,68.60
2023-07-18T19:18:27.792Z,68.01
2023-07-18T19:19:59.436Z,67.08
2023-07-18T19:21:31.263Z,66.98
2023-07-18T19:23:04.422Z,67.20
2023-07-18T19:24:36.483Z,66.87
2023-07-18T19:26:09.112Z,67.87
2023-07-18T19:27:40.835Z,68.17
2023-07-18T19:29:12.458Z,68.04
2023-07-18T19:30:44.101Z,68.31
2023-07-18T19:32:16.193Z,69.23
2023-07-18T19:33:47.993Z,67.92
2023-07-18T19:35:19.731Z,67.90
2023-07-18T19:36:51.776Z,68.19
2023-07-18T19:38:24.837Z,68.34
2023-07-18T19:39:56.569Z,68.92
2023-07-18T19:41:28.351Z,68.26
2023-07-18T19:43:00.040Z,68.14
2023-07-18T19:44:32.032Z,67.89
2023-07-18T19:46:05.169Z,67.38
2023-07-18T19:47:37.633Z,67.54
2023-07-18T19:49:09.913Z,67.16
2023-07-18T19:50:43.749Z,67.19
2023-07-18T19:52:15.394Z,67.76
2023-07-18T19:53:48.452Z,67.76
2023-07-18T19:55:20.140Z,68.47